createdAt,value
2022-10-16T00:00:13.598Z,19.50
2022-10-16T00:10:17.600Z,19.40
2022-10-16T00:20:22.572Z,19.30
2022-10-16T00:30:28.120Z,19.30
2022-10-16T00:40:33.207Z,19.20
2022-10-16T00:50:37.485Z,19.00
2022-10-16T01:00:42.899Z,19.00
2022-10-16T01:10:58.810Z,19.30
2022-10-16T01:21:06.476Z,19.40
2022-10-16T01:31:13.715Z,19.30
2022-10-16T01:41:21.916Z,19.40
2022-10-16T01:51:28.533Z,19.30
2022-10-16T02:01:35.806Z,19.30
2022-10-16T02:11:41.196Z,19.30
2022-10-16T02:21:50.823Z,19.20
2022-10-16T02:32:01.985Z,19.30
2022-10-16T02:42:06.005Z,19.40
2022-10-16T02:52:11.198Z,19.80
2022-10-16T03:02:18.246Z,19.60
2022-10-16T03:12:23.709Z,19.50
2022-10-16T03:22:27.382Z,19.10
2022-10-16T03:32:32.429Z,18.80
2022-10-16T03:42:36.087Z,18.70
2022-10-16T03:52:41.117Z,18.60
2022-10-16T04:12:56.037Z,18.80
2022-10-16T04:22:59.714Z,18.80
2022-10-16T04:33:04.844Z,19.10
2022-10-16T04:43:08.885Z,19.10
2022-10-16T04:53:14.288Z,19.10
2022-10-16T05:03:18.024Z,19.00
2022-10-16T05:13:24.621Z,19.00
2022-10-16T05:23:28.246Z,18.90
2022-10-16T05:33:33.204Z,18.90
2022-10-16T05:43:36.821Z,18.80
2022-10-16T06:03:47.822Z,18.60
2022-10-16T06:13:55.595Z,18.70
2022-10-16T06:23:59.882Z,18.60
2022-10-16T06:34:06.842Z,18.70
2022-10-16T06:44:10.706Z,18.70
2022-10-16T06:54:17.101Z,19.30
2022-10-16T07:04:20.963Z,19.60
2022-10-16T07:14:26.639Z,20.00
2022-10-16T07:24:30.311Z,20.10
2022-10-16T07:34:35.393Z,20.40
2022-10-16T07:44:38.949Z,21.30
2022-10-16T07:54:44.067Z,22.20
2022-10-16T08:04:49.809Z,22.70
2022-10-16T08:14:55.308Z,23.00
2022-10-16T08:24:59.040Z,22.90
2022-10-16T08:35:04.081Z,23.10
2022-10-16T08:45:27.332Z,23.60
2022-10-16T08:55:40.653Z,23.40
2022-10-16T09:06:18.971Z,23.60
2022-10-16T09:16:30.406Z,23.60
2022-10-16T09:26:34.079Z,23.60
2022-10-16T09:36:44.189Z,23.50
2022-10-16T09:46:47.883Z,24.00
2022-10-16T09:56:55.265Z,24.00
2022-10-16T10:07:00.697Z,24.00
2022-10-16T10:17:17.335Z,25.00
2022-10-16T10:27:21.705Z,25.20
2022-10-16T10:37:42.891Z,25.40
2022-10-16T10:47:58.109Z,25.90
2022-10-16T10:58:32.260Z,25.70
2022-10-16T11:08:43.485Z,26.20
2022-10-16T11:18:55.468Z,27.10
2022-10-16T11:29:00.717Z,27.40
2022-10-16T11:39:15.955Z,28.00
2022-10-16T11:49:23.829Z,27.90
2022-10-16T11:59:35.012Z,28.00
2022-10-16T12:09:41.535Z,28.30
2022-10-16T12:19:47.016Z,27.70
2022-10-16T12:29:58.489Z,27.90
2022-10-16T12:40:16.145Z,27.80
2022-10-16T12:50:35.914Z,28.70
2022-10-16T13:00:47.129Z,28.30
2022-10-16T13:11:04.299Z,28.20
2022-10-16T13:21:22.313Z,28.80
2022-10-16T13:31:27.443Z,28.90
2022-10-16T13:41:32.665Z,29.20
2022-10-16T13:51:37.093Z,29.10
2022-10-16T14:01:46.293Z,29.80
2022-10-16T14:11:53.602Z,29.20
2022-10-16T14:21:58.935Z,29.90
2022-10-16T14:32:03.675Z,30.20
2022-10-16T14:42:18.726Z,30.20
2022-10-16T14:52:22.376Z,29.70
2022-10-16T15:02:31.462Z,29.30
2022-10-16T15:12:35.226Z,27.50
2022-10-16T15:22:40.198Z,27.70
2022-10-16T15:32:43.780Z,27.40
2022-10-16T15:42:49.683Z,27.10
2022-10-16T15:52:53.831Z,26.00
2022-10-16T16:02:59.003Z,25.00
2022-10-16T16:13:02.543Z,24.80
2022-10-16T16:23:07.601Z,24.60
2022-10-16T16:33:11.217Z,24.50
2022-10-16T16:43:16.332Z,24.40
2022-10-16T16:53:19.953Z,24.10
2022-10-16T17:03:24.900Z,23.80
2022-10-16T17:13:30.509Z,23.30
2022-10-16T17:23:36.522Z,23.30
2022-10-16T17:33:40.276Z,23.10
2022-10-16T17:43:46.438Z,23.00
2022-10-16T17:53:50.778Z,22.70
2022-10-16T18:03:58.204Z,22.30
2022-10-16T18:14:02.216Z,22.00
2022-10-16T18:24:07.613Z,21.80
2022-10-16T18:34:11.551Z,21.80
2022-10-16T18:44:16.727Z,21.80
2022-10-16T18:54:21.237Z,21.80
2022-10-16T19:04:26.268Z,21.90
2022-10-16T19:14:30.447Z,21.90
2022-10-16T19:24:35.461Z,21.90
2022-10-16T19:34:39.383Z,21.90
2022-10-16T19:44:44.305Z,21.90
2022-10-16T19:54:48.135Z,21.80
2022-10-16T20:04:53.270Z,21.80
2022-10-16T20:14:57.678Z,21.50
2022-10-16T20:25:05.965Z,21.60
2022-10-16T20:35:14.047Z,21.50
2022-10-16T20:45:19.254Z,21.30
2022-10-16T20:55:22.891Z,21.20
2022-10-16T21:05:29.044Z,20.90
2022-10-16T21:15:32.765Z,20.80
2022-10-16T21:25:37.865Z,20.60
2022-10-16T21:35:41.401Z,20.50
2022-10-16T21:45:46.472Z,20.30
2022-10-16T21:55:50.723Z,20.30
2022-10-16T22:05:55.682Z,20.30
2022-10-16T22:15:59.426Z,20.20
2022-10-16T22:26:06.786Z,20.30
2022-10-16T22:36:13.247Z,20.00
2022-10-16T22:46:19.791Z,19.80
2022-10-16T22:56:24.081Z,19.80
2022-10-16T23:06:29.280Z,19.60
2022-10-16T23:16:32.810Z,19.50
2022-10-16T23:26:37.931Z,19.60
2022-10-16T23:36:43.337Z,19.80
2022-10-16T23:46:48.404Z,19.80
2022-10-16T23:56:52.185Z,19.90
